Latest Coastal Weather Observations for Centre Island

IDD60701

Issued at 7:51 pm CST Saturday 22 February 2020 (issued every 10 minutes, with the page automatically refreshed every 10 minutes)

About coastal observations | Map of coastal stations | Coastal observations for NT | Marine services | Other Formats
Station Details ID: 014703 Name: CENTRE ISLAND Lat: -15.74 Lon: 136.82 Height: 12.2 m
Data from the previous 72 hours. | See also: Recent months at Centre Island
Date/Time
CST
Wind Sea
Height
m
Swell Vis
km
Cloud Weather Temp
°C
Press
hPa
Rain since
9am
mm
Dir  Spd
kts
Gust
kts
Height
m
Period
s
Dir
22/07:30pm SE 24 28 - - - - - - - 28.5 1004.1 0.0
22/07:00pm ESE 26 31 - - - - - - - 28.7 1003.7 0.0
22/06:30pm ESE 23 28 - - - - - - - 29.0 1003.5 0.0
22/06:00pm ESE 24 29 - - - - - - - 29.2 1003.4 0.0
22/05:30pm SE 24 28 - - - - - - - 28.9 1003.2 0.0
22/05:00pm SE 24 28 - - - - - - - 28.8 1003.4 0.0
22/04:30pm SE 27 32 - - - - - - - 28.6 1003.4 0.0
22/04:00pm SE 29 35 - - - - - - - 29.5 1003.3 0.0
22/03:30pm ESE 29 34 - - - - - - - 29.3 1003.4 0.0
22/03:16pm ESE 23 33 - - - - - - - 29.4 1003.7 0.0
22/03:00pm ESE 30 36 - - - - - - - 28.9 1003.8 0.0
22/02:36pm ESE 23 39 - - - - - - - 29.9 1003.7 0.0
22/02:34pm ESE 20 30 - - - - - - - 31.8 1003.7 0.0
22/02:30pm ESE 18 21 - - - - - - - 31.7 1003.7 0.0
22/02:00pm SE 21 25 - - - - - - - 33.5 1003.7 0.0
22/01:46pm SE 19 26 - - - - - - - 33.0 1004.0 0.0
22/01:30pm SSE 13 16 - - - - - - - 32.5 1004.3 0.0
22/01:00pm SSE 17 20 - - - - - - - 31.6 1004.9 0.0
22/12:30pm SSE 17 21 - - - - - - - 31.1 1005.5 0.0
22/12:00pm SSE 13 16 - - - - - - - 30.3 1005.9 0.0
22/11:30am SSE 11 12 - - - - - - - 30.2 1006.5 0.0
22/11:00am SSE 12 14 - - - - - - - 29.0 1007.0 0.0
22/10:30am SE 16 20 - - - - - - - 28.4 1007.4 0.0
22/10:00am SE 17 20 - - - - - - - 28.5 1007.6 0.0
22/09:30am SE 18 21 - - - - - - - 28.2 1007.6 0.0
22/09:00am SE 24 27 - - - - - - - 28.1 1007.8 1.2
22/08:30am SE 24 28 - - - - - - - 28.8 1007.4 1.2
22/08:00am SE 24 28 - - - - - - - 28.8 1006.7 1.2
22/07:30am SSE 21 24 - - - - - - - 28.9 1006.3 1.2
22/07:00am S 17 20 - - - - - - - 28.8 1006.0 1.2
22/06:30am S 16 19 - - - - - - - 28.8 1005.6 1.2
22/06:00am S 16 20 - - - - - - - 28.9 1005.2 1.2
22/05:30am SSE 15 18 - - - - - - - 28.9 1005.3 1.2
22/05:00am SSE 15 17 - - - - - - - 29.1 1005.0 1.2
22/04:30am S 13 16 - - - - - - - 28.8 1005.1 1.2
22/04:00am S 12 14 - - - - - - - 28.5 1005.0 1.2
22/03:30am SSW 8 9 - - - - - - - 28.7 1004.2 1.2
22/03:00am SSW 10 13 - - - - - - - 28.6 1004.4 1.2
22/02:30am S 9 11 - - - - - - - 29.1 1004.7 1.2
22/02:00am SSE 10 11 - - - - - - - 29.3 1005.3 1.2
22/01:30am SSE 10 11 - - - - - - - 29.3 1005.5 1.2
22/01:00am SSE 9 11 - - - - - - - 29.5 1006.0 1.2
22/12:30am SE 9 11 - - - - - - - 29.5 1006.5 1.2
22/12:00am SE 9 11 - - - - - - - 29.4 1006.5 1.2
 
Date/Time
CST
Wind Sea
Height
m
Swell Vis
km
Cloud Weather Temp
°C
Press
hPa
Rain since
9am
mm
Dir  Spd
kts
Gust
kts
Height
m
Period
s
Dir
21/11:30pm E 9 11 - - - - - - - 29.5 1006.5 1.2
21/11:00pm E 12 16 - - - - - - - 29.6 1006.8 1.2
21/10:30pm ESE 13 16 - - - - - - - 29.5 1007.2 1.2
21/10:00pm ESE 15 17 - - - - - - - 29.5 1007.3 1.2
21/09:30pm E 15 17 - - - - - - - 29.6 1006.9 1.2
21/09:00pm E 16 19 - - - - - - - 30.0 1006.4 1.2
21/08:30pm E 14 16 - - - - - - - 29.8 1006.2 1.2
21/08:00pm E 13 16 - - - - - - - 29.6 1006.0 1.2
21/07:30pm E 13 15 - - - - - - - 29.6 1005.6 1.2
21/07:00pm E 11 13 - - - - - - - 29.5 1005.0 1.2
21/06:30pm E 11 14 - - - - - - - 29.5 1004.9 1.2
21/06:00pm E 11 13 - - - - - - - 29.6 1004.7 1.2
21/05:30pm E 13 16 - - - - - - - 29.4 1004.5 1.2
21/05:00pm E 13 16 - - - - - - - 29.4 1004.5 1.2
21/04:30pm E 15 18 - - - - - - - 29.5 1004.7 1.2
21/04:00pm E 14 17 - - - - - - - 29.4 1004.8 1.2
21/03:30pm E 16 19 - - - - - - - 28.7 1004.9 1.2
21/03:00pm SSE 9 11 - - - - - - - 29.3 1005.1 0.8
21/02:30pm S 11 13 - - - - - - - 29.9 1005.5 0.8
21/02:00pm SSE 5 7 - - - - - - - 31.1 1005.7 0.8
21/01:30pm S 7 9 - - - - - - - 31.5 1006.3 0.8
21/01:00pm S 9 11 - - - - - - - 30.0 1006.8 0.8
21/12:30pm SSW 9 12 - - - - - - - 30.0 1007.1 0.8
21/12:00pm SSW 10 13 - - - - - - - 29.6 1007.4 0.8
21/11:30am S 10 11 - - - - - - - 28.6 1007.2 0.8
21/11:00am SSE 14 17 - - - - - - - 28.7 1007.1 0.8
21/10:30am SSE 12 15 - - - - - - - 27.3 1007.1 0.8
21/10:00am SE 15 18 - - - - - - - 26.2 1007.5 0.8
21/09:30am SE 16 19 - - - - - - - 25.4 1007.9 0.6
21/09:00am SSE 15 18 - - - - - - Rain 25.5 1008.5 13.4
21/08:30am SE 19 21 - - - - - - - 25.5 1008.7 11.8
21/08:00am SSE 21 27 - - - - - - - 25.9 1008.7 10.2
21/07:30am SE 23 27 - - - - - - - 26.2 1008.0 9.8
21/07:02am ESE 23 33 - - - - - - - 26.5 1007.2 9.0
21/07:00am ESE 22 26 - - - - - - - 27.0 1007.2 8.8
21/06:30am ESE 26 31 - - - - - - - 26.4 1006.7 7.0
21/06:00am E 26 33 - - - - - - Rain 25.6 1006.3 6.0
21/05:43am E 26 38 - - - - - - - 26.0 1006.2 0.4
21/05:32am SSE 15 26 - - - - - - - 27.0 1006.3 0.2
21/05:30am S 13 19 - - - - - - - 29.4 1006.0 0.2
21/05:00am SSW 9 11 - - - - - - - 29.2 1005.1 0.2
21/04:30am SSW 6 11 - - - - - - - 29.5 1005.0 0.2
21/04:00am CALM 0 0 - - - - - - - 29.0 1004.7 0.2
21/03:30am CALM 0 0 - - - - - - - 29.4 1004.6 0.2
21/03:00am ESE 4 5 - - - - - - - 29.3 1004.8 0.2
21/02:30am CALM 0 0 - - - - - - - 29.2 1005.3 0.2
21/02:00am ENE 5 6 - - - - - - - 29.6 1005.8 0.2
21/01:30am ENE 6 8 - - - - - - - 29.8 1006.1 0.2
21/01:00am ENE 9 11 - - - - - - - 30.0 1006.5 0.2
21/12:30am ENE 8 11 - - - - - - - 30.3 1006.9 0.2
21/12:00am ENE 10 12 - - - - - - - 30.3 1007.2 0.2
 
Date/Time
CST
Wind Sea
Height
m
Swell Vis
km
Cloud Weather Temp
°C
Press
hPa
Rain since
9am
mm
Dir  Spd
kts
Gust
kts
Height
m
Period
s
Dir
20/11:30pm NE 9 11 - - - - - - - 30.4 1007.2 0.2
20/11:00pm NE 9 12 - - - - - - - 30.2 1007.2 0.2
20/10:30pm NE 9 12 - - - - - - - 30.1 1007.2 0.2
20/10:00pm NE 10 13 - - - - - - - 30.0 1006.8 0.2
20/09:30pm ENE 11 13 - - - - - - - 30.0 1006.5 0.2
20/09:00pm ENE 11 14 - - - - - - - 30.0 1006.1 0.2
20/08:30pm ENE 13 16 - - - - - - - 30.1 1005.4 0.2
20/08:00pm E 15 17 - - - - - - - 30.2 1005.2 0.2
20/07:30pm E 12 14 - - - - - - - 30.0 1004.8 0.2
20/07:00pm E 12 15 - - - - - - - 30.1 1004.6 0.2
20/06:30pm E 12 14 - - - - - - - 30.4 1004.0 0.2
20/06:00pm E 11 14 - - - - - - - 30.7 1003.7 0.2
20/05:30pm ESE 12 15 - - - - - - - 30.9 1003.6 0.2
20/05:00pm E 13 15 - - - - - - - 31.4 1003.4 0.2
20/04:30pm ESE 10 14 - - - - - - - 32.3 1003.6 0.2
20/04:00pm E 11 14 - - - - - - - 32.0 1003.7 0.2
20/03:30pm E 12 15 - - - - - - - 31.8 1004.1 0.2
20/03:00pm ESE 13 15 - - - - - - - 31.7 1004.5 0.2
20/02:30pm ESE 12 16 - - - - - - - 31.7 1004.9 0.2
20/02:00pm SE 11 13 - - - - - - - 31.3 1004.8 0.2
20/01:30pm SE 10 12 - - - - - - - 30.9 1005.4 0.2
20/01:00pm SSE 9 12 - - - - - - - 30.7 1005.7 0.2
20/12:30pm S 8 9 - - - - - - - 30.0 1006.3 0.2
20/12:00pm S 9 11 - - - - - - - 29.3 1006.9 0.0
20/11:30am S 8 10 - - - - - - - 28.6 1007.2 0.0
20/11:00am SSE 11 15 - - - - - - - 28.3 1007.5 0.0
20/10:30am S 14 16 - - - - - - - 27.8 1007.6 0.0
20/10:00am SSE 16 19 - - - - - - - 27.1 1007.4 0.0
20/09:30am SSE 17 20 - - - - - - - 27.5 1007.0 0.0
20/09:00am SSE 19 22 - - - - - - Recent precip. 27.3 1006.8 87.8
20/08:30am S 13 17 - - - - - - - 25.5 1007.2 87.8
20/08:00am SE 14 17 - - - - - - - 26.2 1007.7 87.4
20/07:35am ESE 25 35 - - - - - - - 25.7 1007.3 84.6
20/07:30am E 29 35 - - - - - - - 24.8 1007.1 82.4
20/07:19am ESE 26 43 - - - - - - - 26.7 1006.9 77.8
20/07:16am SE 22 27 - - - - - - - 28.2 1007.1 77.6
20/07:00am SSE 16 23 - - - - - - - 28.5 1006.6 77.6
20/06:30am SSE 11 14 - - - - - - - 28.8 1005.9 77.6
20/06:00am SSE 10 12 - - - - - - - 28.9 1005.0 77.6
20/05:30am S 9 11 - - - - - - - 28.9 1004.1 77.6
20/05:00am SE 7 9 - - - - - - - 29.3 1004.1 77.6
20/04:30am ESE 7 8 - - - - - - - 29.2 1003.7 77.6
20/04:00am E 8 11 - - - - - - - 29.3 1003.4 77.6
20/03:30am E 13 16 - - - - - - - 29.6 1003.8 77.6
20/03:00am E 9 11 - - - - - - - 29.8 1003.6 77.6
20/02:30am E 11 13 - - - - - - - 29.6 1004.0 77.6
20/02:00am ESE 8 9 - - - - - - - 29.6 1004.6 77.6
20/01:30am E 7 9 - - - - - - - 29.5 1004.9 77.6
20/01:00am E 9 11 - - - - - - - 29.7 1005.2 77.6
20/12:30am E 7 9 - - - - - - - 29.4 1005.5 77.6
20/12:00am ESE 7 9 - - - - - - - 29.4 1005.8 77.6
 
Date/Time
CST
Wind Sea
Height
m
Swell Vis
km
Cloud Weather Temp
°C
Press
hPa
Rain since
9am
mm
Dir  Spd
kts
Gust
kts
Height
m
Period
s
Dir
19/11:30pm ESE 7 8 - - - - - - - 29.3 1006.1 77.6
19/11:00pm ESE 9 10 - - - - - - - 29.2 1006.3 77.6
19/10:30pm ESE 8 10 - - - - - - - 29.2 1006.1 77.6
19/10:00pm SE 7 8 - - - - - - - 28.9 1006.1 77.6
19/09:30pm SSE 9 10 - - - - - - - 28.7 1006.1 77.6
19/09:00pm SE 11 13 - - - - - - - 28.5 1005.8 77.6
19/08:30pm SE 10 13 - - - - - - - 29.1 1005.3 77.6
19/08:00pm SSE 9 11 - - - - - - - 28.8 1004.6 77.6

Other formats

Comma delimited format used in spreadsheet applications
http://www.bom.gov.au/fwo/IDD60701/IDD60701.94248.axf

JavaScript Object Notation format (JSON) in row-major order
http://www.bom.gov.au/fwo/IDD60701/IDD60701.94248.json

Data quality

Most of these data are generated automatically and are frequently updated. Quality checks on data are not normally performed. It is possible for incorrect values to appear. Refer to information at About Latest Weather Observations and please check the disclaimer before using these data.